createdAt,value
2023-02-09T06:01:06.108Z,-5.33
2023-02-09T06:03:33.412Z,-5.30
2023-02-09T06:06:00.149Z,-5.25
2023-02-09T06:08:27.406Z,-5.17
2023-02-09T06:10:56.928Z,-5.16
2023-02-09T06:13:24.751Z,-5.24
2023-02-09T06:15:51.492Z,-5.30
2023-02-09T06:18:18.716Z,-5.23
2023-02-09T06:20:45.750Z,-5.30
2023-02-09T06:23:13.313Z,-5.30
2023-02-09T06:25:40.980Z,-5.28
2023-02-09T06:28:08.294Z,-5.30
2023-02-09T06:30:34.856Z,-5.26
2023-02-09T06:33:02.098Z,-5.29
2023-02-09T06:35:28.802Z,-5.35
2023-02-09T06:37:59.301Z,-5.37
2023-02-09T06:40:25.885Z,-5.33
2023-02-09T06:42:53.029Z,-5.32
2023-02-09T06:45:19.578Z,-5.35
2023-02-09T06:47:47.311Z,-5.29
2023-02-09T06:50:15.856Z,-5.33
2023-02-09T06:52:43.301Z,-5.38
2023-02-09T06:55:09.882Z,-5.35
2023-02-09T06:57:37.168Z,-5.33
2023-02-09T07:00:06.089Z,-5.28
2023-02-09T07:02:33.078Z,-5.28
2023-02-09T07:04:59.688Z,-5.23
2023-02-09T07:07:26.648Z,-5.20
2023-02-09T07:09:53.736Z,-5.19
2023-02-09T07:12:20.271Z,-5.22
2023-02-09T07:14:47.461Z,-5.14
2023-02-09T07:17:13.976Z,-5.17
2023-02-09T07:19:41.072Z,-5.15
2023-02-09T07:22:07.633Z,-5.11
2023-02-09T07:24:34.954Z,-5.11
2023-02-09T07:27:01.585Z,-5.06
2023-02-09T07:29:28.981Z,-5.10
2023-02-09T07:31:55.615Z,-5.02
2023-02-09T07:34:23.166Z,-4.98
2023-02-09T07:36:49.961Z,-4.99
2023-02-09T07:39:17.425Z,-4.92
2023-02-09T07:41:44.221Z,-4.85
2023-02-09T07:44:11.265Z,-4.80
2023-02-09T07:46:37.963Z,-4.73
2023-02-09T07:49:05.300Z,-4.66
2023-02-09T07:51:33.444Z,-4.52
2023-02-09T07:54:01.686Z,-4.46
2023-02-09T07:56:29.035Z,-4.37
2023-02-09T07:58:57.305Z,-4.32
2023-02-09T08:01:24.531Z,-4.24
2023-02-09T08:03:51.994Z,-4.15
2023-02-09T08:06:43.147Z,-4.08
2023-02-09T08:09:12.591Z,-4.03
2023-02-09T08:12:02.696Z,-3.93
2023-02-09T08:14:35.780Z,-3.89
2023-02-09T08:17:27.989Z,-3.80
2023-02-09T08:20:08.120Z,-3.70
2023-02-09T08:22:38.924Z,-3.57
2023-02-09T08:25:06.641Z,-3.49
2023-02-09T08:27:34.411Z,-3.38
2023-02-09T08:30:02.992Z,-3.29
2023-02-09T08:32:29.862Z,-3.23
2023-02-09T08:34:57.097Z,-3.13
2023-02-09T08:37:23.680Z,-3.05
2023-02-09T08:39:50.960Z,-2.94
2023-02-09T08:42:17.605Z,-2.90
2023-02-09T08:44:44.549Z,-2.81
2023-02-09T08:47:11.146Z,-2.67
2023-02-09T08:49:38.085Z,-2.65
2023-02-09T08:52:05.315Z,-2.60
2023-02-09T08:54:32.212Z,-2.55
2023-02-09T08:56:58.940Z,-2.46
2023-02-09T08:59:25.996Z,-2.36
2023-02-09T09:01:53.441Z,-2.24
2023-02-09T09:04:21.376Z,-2.17
2023-02-09T09:06:48.015Z,-2.12
2023-02-09T09:09:15.234Z,-2.02
2023-02-09T09:11:41.764Z,-1.96
2023-02-09T09:14:08.966Z,-1.88
2023-02-09T09:16:35.599Z,-1.85
2023-02-09T09:19:04.680Z,-1.72
2023-02-09T09:21:31.593Z,-1.65
2023-02-09T09:24:00.821Z,-1.60
2023-02-09T09:26:27.442Z,-1.50
2023-02-09T09:28:54.641Z,-1.42
2023-02-09T09:31:21.305Z,-1.32
2023-02-09T09:33:48.545Z,-1.23
2023-02-09T09:36:15.160Z,-1.23
2023-02-09T09:38:43.122Z,-1.13
2023-02-09T09:41:31.577Z,-1.01
2023-02-09T09:43:59.980Z,-0.89
2023-02-09T09:46:36.719Z,-0.91
2023-02-09T09:49:05.335Z,-0.80
2023-02-09T09:51:37.362Z,-0.77
2023-02-09T09:54:07.913Z,-0.64
2023-02-09T09:56:34.647Z,-0.60
2023-02-09T09:59:02.630Z,-0.52
2023-02-09T10:01:31.918Z,-0.41
2023-02-09T10:04:02.357Z,-0.26
2023-02-09T10:06:31.068Z,-0.11
2023-02-09T10:09:02.735Z,0.06
2023-02-09T10:11:36.985Z,0.18
2023-02-09T10:14:03.988Z,0.25
2023-02-09T10:16:35.130Z,0.35
2023-02-09T10:19:05.883Z,0.44
2023-02-09T10:21:36.565Z,0.59
2023-02-09T10:24:12.796Z,0.63
2023-02-09T10:26:43.255Z,0.67
2023-02-09T10:29:13.639Z,0.82
2023-02-09T10:31:42.776Z,0.89
2023-02-09T10:34:22.425Z,0.97
2023-02-09T10:37:14.298Z,1.05
2023-02-09T10:39:42.106Z,1.22
2023-02-09T10:42:25.634Z,1.20
2023-02-09T10:44:55.629Z,1.28
2023-02-09T10:47:25.147Z,1.17
2023-02-09T10:49:59.814Z,1.24
2023-02-09T10:52:31.509Z,1.27
2023-02-09T10:55:22.244Z,1.44
2023-02-09T10:57:48.906Z,1.55
2023-02-09T11:00:29.237Z,1.69
2023-02-09T11:03:01.521Z,1.64
2023-02-09T11:05:35.531Z,1.60
2023-02-09T11:08:20.626Z,1.73
2023-02-09T11:11:06.064Z,1.73
2023-02-09T11:13:34.363Z,1.74
2023-02-09T11:16:13.552Z,1.78
2023-02-09T11:18:44.586Z,1.88
2023-02-09T11:21:24.255Z,1.91
2023-02-09T11:24:29.269Z,2.02
2023-02-09T11:27:25.545Z,2.12
2023-02-09T11:30:30.525Z,2.21
2023-02-09T11:33:22.243Z,2.24
2023-02-09T11:36:05.439Z,2.29
2023-02-09T11:38:56.922Z,2.34
2023-02-09T11:42:20.777Z,2.34
2023-02-09T11:45:08.850Z,2.45
2023-02-09T11:48:00.288Z,2.42
2023-02-09T11:50:30.283Z,2.52
2023-02-09T11:53:02.403Z,2.56
2023-02-09T11:55:35.880Z,2.62
2023-02-09T11:58:20.393Z,2.60
2023-02-09T12:01:25.548Z,2.62
2023-02-09T12:03:58.668Z,2.66
2023-02-09T12:06:28.145Z,2.71
2023-02-09T12:09:02.167Z,2.74
2023-02-09T12:11:45.894Z,2.69
2023-02-09T12:14:23.447Z,2.72
2023-02-09T12:17:15.939Z,2.69
2023-02-09T12:19:46.581Z,2.81
2023-02-09T12:22:41.124Z,2.75
2023-02-09T12:25:17.774Z,2.77
2023-02-09T12:28:04.614Z,2.82
2023-02-09T12:30:40.365Z,2.91
2023-02-09T12:33:18.385Z,3.02
2023-02-09T12:36:23.224Z,3.05
2023-02-09T12:38:54.519Z,3.05
2023-02-09T12:41:31.493Z,3.05
2023-02-09T12:44:11.046Z,3.17
2023-02-09T12:46:46.940Z,3.13
2023-02-09T12:49:14.083Z,3.19
2023-02-09T12:51:46.540Z,3.25
2023-02-09T12:54:38.087Z,3.30
2023-02-09T12:57:17.020Z,3.35
2023-02-09T12:59:50.590Z,3.39
2023-02-09T13:02:36.542Z,3.46
2023-02-09T13:05:16.283Z,3.32
2023-02-09T13:07:50.006Z,3.31
2023-02-09T13:10:23.193Z,3.39
2023-02-09T13:13:06.842Z,3.46
2023-02-09T13:15:51.152Z,3.44
2023-02-09T13:18:33.309Z,3.50
2023-02-09T13:21:21.590Z,3.59
2023-02-09T13:24:11.775Z,3.59
2023-02-09T13:26:56.245Z,3.59
2023-02-09T13:29:25.669Z,3.68
2023-02-09T13:32:17.354Z,3.58
2023-02-09T13:35:00.221Z,3.59
2023-02-09T13:37:46.111Z,3.61
2023-02-09T13:40:34.498Z,3.64
2023-02-09T13:43:10.582Z,3.63
2023-02-09T13:45:50.159Z,3.63
2023-02-09T13:48:32.821Z,3.59
2023-02-09T13:51:02.854Z,3.53
2023-02-09T13:53:32.112Z,3.53
2023-02-09T13:56:00.865Z,3.46
2023-02-09T13:58:31.404Z,3.51
2023-02-09T14:01:03.151Z,3.52
2023-02-09T14:03:33.180Z,3.50
2023-02-09T14:06:11.315Z,3.58
2023-02-09T14:08:40.741Z,3.44
2023-02-09T14:11:19.544Z,3.51
2023-02-09T14:13:53.341Z,3.47
2023-02-09T14:16:23.720Z,3.45
2023-02-09T14:18:56.406Z,3.41
2023-02-09T14:21:44.664Z,3.54
2023-02-09T14:24:15.055Z,3.59
2023-02-09T14:27:05.311Z,3.55
2023-02-09T14:29:35.631Z,3.49
2023-02-09T14:32:32.002Z,3.56
2023-02-09T14:35:09.374Z,3.62
2023-02-09T14:37:36.898Z,3.70
2023-02-09T14:40:06.998Z,3.71
2023-02-09T14:42:39.191Z,3.70
2023-02-09T14:45:15.454Z,3.75
2023-02-09T14:47:44.066Z,3.80
2023-02-09T14:50:20.941Z,3.81
2023-02-09T14:52:51.640Z,3.72
2023-02-09T14:55:23.857Z,3.80
2023-02-09T14:57:50.425Z,3.73
2023-02-09T15:00:25.995Z,3.73
2023-02-09T15:02:53.357Z,3.68
2023-02-09T15:05:22.032Z,3.65
2023-02-09T15:07:59.083Z,3.68
2023-02-09T15:10:33.282Z,3.61
2023-02-09T15:13:01.898Z,3.55
2023-02-09T15:15:29.449Z,3.46
2023-02-09T15:17:58.588Z,3.46
2023-02-09T15:20:26.695Z,3.45
2023-02-09T15:22:54.831Z,3.43
2023-02-09T15:25:22.390Z,3.36
2023-02-09T15:27:57.587Z,3.32
2023-02-09T15:30:33.786Z,3.29
2023-02-09T15:33:01.925Z,3.22
2023-02-09T15:35:29.661Z,3.15
2023-02-09T15:37:59.768Z,3.16
2023-02-09T15:40:49.861Z,3.13
2023-02-09T15:43:38.584Z,3.08
2023-02-09T15:46:25.430Z,3.08
2023-02-09T15:48:53.054Z,3.03
2023-02-09T15:51:19.752Z,3.00
2023-02-09T15:53:47.664Z,2.99
2023-02-09T15:56:15.513Z,2.95
2023-02-09T15:58:45.046Z,2.90
2023-02-09T16:01:17.238Z,2.87
2023-02-09T16:03:44.899Z,2.83
2023-02-09T16:06:16.901Z,2.76
2023-02-09T16:08:45.345Z,2.75
2023-02-09T16:11:36.077Z,2.69
2023-02-09T16:14:06.363Z,2.63
2023-02-09T16:16:33.633Z,2.60
2023-02-09T16:19:00.460Z,2.50
2023-02-09T16:21:31.226Z,2.42
2023-02-09T16:24:01.243Z,2.39
2023-02-09T16:26:28.610Z,2.34
2023-02-09T16:28:57.137Z,2.27
2023-02-09T16:31:25.285Z,2.18
2023-02-09T16:33:52.876Z,2.12
2023-02-09T16:36:22.126Z,2.05
2023-02-09T16:38:49.509Z,1.96
2023-02-09T16:41:37.080Z,1.84
2023-02-09T16:44:19.176Z,1.79
2023-02-09T16:46:48.358Z,1.72
2023-02-09T16:49:33.384Z,1.63
2023-02-09T16:52:11.551Z,1.53
2023-02-09T16:54:46.124Z,1.49
2023-02-09T16:57:15.288Z,1.42
2023-02-09T16:59:42.613Z,1.35
2023-02-09T17:02:28.183Z,1.29
2023-02-09T17:04:55.408Z,1.19
2023-02-09T17:07:30.191Z,1.11
2023-02-09T17:10:01.000Z,1.06
2023-02-09T17:12:28.030Z,1.01
2023-02-09T17:14:55.282Z,0.90
2023-02-09T17:17:22.883Z,0.82
2023-02-09T17:19:50.826Z,0.78
2023-02-09T17:22:18.292Z,0.64
2023-02-09T17:24:47.471Z,0.58
2023-02-09T17:27:14.193Z,0.51
2023-02-09T17:29:41.480Z,0.41
2023-02-09T17:32:13.454Z,0.34
2023-02-09T17:34:41.073Z,0.29
2023-02-09T17:37:13.339Z,0.19
2023-02-09T17:39:41.046Z,0.17
2023-02-09T17:42:20.948Z,0.05
2023-02-09T17:44:49.457Z,0.04
2023-02-09T17:47:18.614Z,-0.04
2023-02-09T17:49:47.082Z,-0.11
2023-02-09T17:52:19.655Z,-0.16
2023-02-09T17:54:48.348Z,-0.25
2023-02-09T17:57:19.035Z,-0.26
2023-02-09T17:59:48.210Z,-0.33
2023-02-09T18:02:18.429Z,-0.37
2023-02-09T18:04:46.683Z,-0.41
2023-02-09T18:07:20.515Z,-0.39
2023-02-09T18:09:47.785Z,-0.50
2023-02-09T18:12:21.854Z,-0.48
2023-02-09T18:14:49.720Z,-0.55
2023-02-09T18:17:16.658Z,-0.51
2023-02-09T18:19:43.948Z,-0.54
2023-02-09T18:22:21.003Z,-0.53
2023-02-09T18:24:48.613Z,-0.49
2023-02-09T18:27:19.131Z,-0.40
2023-02-09T18:29:46.356Z,-0.34
2023-02-09T18:32:15.820Z,-0.27
2023-02-09T18:34:43.111Z,-0.23
2023-02-09T18:37:09.715Z,-0.21
2023-02-09T18:39:37.063Z,-0.10
2023-02-09T18:42:03.761Z,-0.10
2023-02-09T18:44:33.455Z,-0.02
2023-02-09T18:47:03.117Z,0.03
2023-02-09T18:49:30.341Z,0.17
2023-02-09T18:51:58.684Z,0.19
2023-02-09T18:54:28.329Z,0.27
2023-02-09T18:56:55.416Z,0.33
2023-02-09T18:59:22.585Z,0.33
2023-02-09T19:01:50.369Z,0.37
2023-02-09T19:04:17.281Z,0.45
2023-02-09T19:06:43.813Z,0.44
2023-02-09T19:09:11.091Z,0.52
2023-02-09T19:11:37.586Z,0.51
2023-02-09T19:14:23.461Z,0.61
2023-02-09T19:16:49.987Z,0.64
2023-02-09T19:19:19.285Z,0.71
2023-02-09T19:21:47.474Z,0.74
2023-02-09T19:24:14.617Z,0.80
2023-02-09T19:26:41.271Z,0.81
2023-02-09T19:29:08.365Z,0.83
2023-02-09T19:31:35.005Z,0.90
2023-02-09T19:34:02.208Z,0.92
2023-02-09T19:36:28.749Z,0.93
2023-02-09T19:38:56.546Z,0.97
2023-02-09T19:41:25.252Z,0.96
2023-02-09T19:43:57.462Z,1.00
2023-02-09T19:46:24.673Z,1.03
2023-02-09T19:48:54.015Z,1.03
2023-02-09T19:51:20.762Z,1.07
2023-02-09T19:53:47.903Z,1.10
2023-02-09T19:56:20.613Z,1.11
2023-02-09T19:58:47.824Z,1.16
2023-02-09T20:01:14.384Z,1.21
2023-02-09T20:03:41.644Z,1.20
2023-02-09T20:06:10.962Z,1.24
2023-02-09T20:08:39.526Z,1.28
2023-02-09T20:11:26.931Z,1.28
2023-02-09T20:13:56.673Z,1.28
2023-02-09T20:16:25.551Z,1.30
2023-02-09T20:18:53.882Z,1.30
2023-02-09T20:21:22.130Z,1.35
2023-02-09T20:23:49.424Z,1.37
2023-02-09T20:26:23.529Z,1.41
2023-02-09T20:28:51.171Z,1.43
2023-02-09T20:31:19.425Z,1.44
2023-02-09T20:33:46.767Z,1.44
2023-02-09T20:36:13.522Z,1.47
2023-02-09T20:38:40.662Z,1.50
2023-02-09T20:41:12.558Z,1.57
2023-02-09T20:43:58.867Z,1.49
2023-02-09T20:46:42.467Z,1.44
2023-02-09T20:49:12.853Z,1.46
2023-02-09T20:51:39.454Z,1.46
2023-02-09T20:54:07.335Z,1.46
2023-02-09T20:56:34.219Z,1.48
2023-02-09T20:59:01.444Z,1.51
2023-02-09T21:01:28.343Z,1.52
2023-02-09T21:03:58.961Z,1.57
2023-02-09T21:06:25.941Z,1.54
2023-02-09T21:08:53.638Z,1.50
2023-02-09T21:11:20.325Z,1.49
2023-02-09T21:13:47.645Z,1.47
2023-02-09T21:16:17.657Z,1.52
2023-02-09T21:18:46.007Z,1.51
2023-02-09T21:21:17.435Z,1.50
2023-02-09T21:23:45.935Z,1.52
2023-02-09T21:26:16.994Z,1.50
2023-02-09T21:28:44.396Z,1.53
